ENCN/KRS METAR and TAF weather

Enter ICAO airport designator
Station Type Date Time Source
ENCN METAR 2020/02/26 10:50 UTC NOAA

ENCN 261050Z 03013KT CAVOK M01/M07 Q0996


Station Type Date Time Source
ENCN Decoded METAR 2020/02/26 10:50 UTC NOAA

Kristiansand / Kjevik, Norway (ENCN) 58-12N 008-05E 17M
Feb 26, 2020 - 05:50 AM EST / 2020.02.26 1050 UTC
Wind: from the NNE (030 degrees) at 15 MPH (13 KT):0
Visibility: greater than 7 mile(s):0
Temperature: 30 F (-1 C)
Windchill: 19 F (-7 C):1
Dew Point: 19 F (-7 C)
Relative Humidity: 63%
Pressure (altimeter): 29.41 in. Hg (0996 hPa)
ob: ENCN 261050Z 03013KT CAVOK M01/M07 Q0996
cycle: 11

Station Type Date Time Source
ENCN TAF 2016/05/06 12:39 UTC NOAA

TAF TAF ENCN 061100Z 0612/0712 14008KT 9999 FEW040

Example: see airport list